Time;durP1;ratioP1;P1;durP2;ratioP2;P2;SDS_P1;SDS_P2;PMS_P1;PMS_P2;Temp;Humidity;BMP_temperature;BMP_pressure;BME280_temperature;BME280_humidity;BME280_pressure;Samples;Min_cycle;Max_cycle;Signal;HPM_P1;HPM_P2
2023/05/28 00:02:15;;;;;;;7.25;3.97;;;16.10;92.00;;;;;;5083439;28;20089;-42
2023/05/28 00:04:40;;;;;;;8.05;3.92;;;16.00;92.30;;;;;;5082135;28;20103;-41
2023/05/28 00:07:10;;;;;;;9.95;3.63;;;15.90;92.50;;;;;;5082431;28;20115;-39
2023/05/28 00:09:36;;;;;;;6.38;3.95;;;15.90;92.70;;;;;;5082152;28;20705;-41
2023/05/28 00:12:02;;;;;;;8.25;3.75;;;15.80;92.90;;;;;;5083218;28;20039;-42
2023/05/28 00:14:28;;;;;;;8.48;4.30;;;15.80;93.00;;;;;;5081460;28;20101;-41
2023/05/28 00:16:54;;;;;;;7.47;3.70;;;15.80;93.20;;;;;;5083374;28;20447;-42
2023/05/28 00:19:21;;;;;;;6.18;3.72;;;15.80;93.40;;;;;;5082688;28;20032;-40
2023/05/28 00:21:47;;;;;;;10.35;4.80;;;15.70;93.60;;;;;;5081487;28;20388;-40
2023/05/28 00:24:13;;;;;;;11.57;4.45;;;15.60;93.90;;;;;;5082270;28;20035;-40
2023/05/28 00:26:38;;;;;;;7.78;3.42;;;15.60;94.20;;;;;;5081219;28;20045;-40
2023/05/28 00:29:07;;;;;;;6.60;3.50;;;15.60;94.30;;;;;;5082915;28;20036;-39
2023/05/28 00:31:32;;;;;;;8.05;4.47;;;15.50;94.40;;;;;;5080787;28;20162;-41
2023/05/28 00:33:58;;;;;;;10.10;4.15;;;15.50;94.70;;;;;;5080737;28;20039;-41
2023/05/28 00:36:23;;;;;;;11.30;5.32;;;15.50;95.00;;;;;;5081482;28;20024;-42
2023/05/28 00:38:49;;;;;;;9.77;4.60;;;15.50;95.30;;;;;;5082041;28;20109;-42
2023/05/28 00:41:22;;;;;;;7.50;4.25;;;15.50;95.60;;;;;;5081117;28;20023;-42
2023/05/28 00:43:49;;;;;;;8.52;4.03;;;15.50;95.80;;;;;;5082176;28;20039;-41
2023/05/28 00:46:18;;;;;;;10.25;4.32;;;15.50;95.90;;;;;;5081834;28;20019;-41
2023/05/28 00:48:45;;;;;;;10.80;4.75;;;15.50;96.00;;;;;;5081795;28;20028;-41
2023/05/28 00:51:12;;;;;;;9.40;4.75;;;15.50;96.20;;;;;;5082602;28;20447;-41
2023/05/28 00:53:38;;;;;;;9.43;4.05;;;15.40;96.30;;;;;;5081893;28;20036;-41
2023/05/28 00:56:05;;;;;;;11.40;4.25;;;15.40;96.40;;;;;;5082049;28;20403;-43
2023/05/28 00:58:31;;;;;;;10.15;4.15;;;15.40;96.50;;;;;;5081838;28;20055;-41
2023/05/28 01:00:56;;;;;;;7.13;3.90;;;15.40;96.70;;;;;;5082966;28;20105;-43
2023/05/28 01:03:22;;;;;;;9.05;4.57;;;15.40;96.90;;;;;;5081387;28;20476;-41
2023/05/28 01:05:48;;;;;;;9.32;4.53;;;15.30;97.00;;;;;;5082616;28;20515;-40
2023/05/28 01:08:14;;;;;;;8.88;4.43;;;15.30;97.50;;;;;;5082858;28;20016;-41
2023/05/28 01:10:46;;;;;;;7.90;4.65;;;15.20;97.60;;;;;;5081031;28;20875;-44
2023/05/28 01:13:12;;;;;;;8.18;4.40;;;15.10;98.00;;;;;;5081520;28;20040;-40
2023/05/28 01:15:40;;;;;;;10.95;4.40;;;15.10;98.30;;;;;;5081935;28;20020;-41
2023/05/28 01:18:06;;;;;;;10.27;4.75;;;15.00;98.50;;;;;;5081305;28;20032;-41
2023/05/28 01:20:38;;;;;;;9.75;4.50;;;14.90;98.80;;;;;;5081708;28;20095;-40
2023/05/28 01:23:11;;;;;;;8.93;4.40;;;15.00;99.00;;;;;;5080798;28;20143;-42
2023/05/28 01:25:40;;;;;;;7.82;4.05;;;14.90;99.20;;;;;;5061025;28;20048;-42
2023/05/28 01:28:12;;;;;;;8.85;4.60;;;14.90;99.40;;;;;;5076111;28;20040;-43
2023/05/28 01:30:38;;;;;;;;;;;14.80;99.70;;;;;;5081305;28;20093;-42
2023/05/28 01:33:05;;;;;;;12.90;5.07;;;14.80;99.80;;;;;;5081897;28;20039;-41
2023/05/28 01:35:30;;;;;;;7.80;4.75;;;14.80;99.90;;;;;;5080793;28;20934;-42
2023/05/28 01:37:59;;;;;;;11.82;5.85;;;14.70;99.90;;;;;;5080840;28;20020;-42
2023/05/28 01:40:26;;;;;;;10.70;5.05;;;14.60;99.90;;;;;;5080292;28;20020;-41
2023/05/28 01:42:55;;;;;;;10.00;4.50;;;14.60;99.90;;;;;;5080585;28;20421;-42
2023/05/28 01:45:22;;;;;;;13.38;5.20;;;14.60;99.90;;;;;;5080404;28;20134;-42
2023/05/28 01:47:50;;;;;;;8.80;4.57;;;14.60;99.90;;;;;;5083346;28;20024;-42
2023/05/28 01:50:16;;;;;;;9.45;4.70;;;14.60;99.90;;;;;;5081467;28;20024;-41
2023/05/28 01:52:44;;;;;;;9.88;4.50;;;14.60;99.90;;;;;;5079412;28;20417;-40
2023/05/28 01:55:11;;;;;;;10.93;4.85;;;14.60;99.90;;;;;;5080488;28;20061;-42
2023/05/28 01:57:37;;;;;;;11.27;4.60;;;14.60;99.90;;;;;;5079774;28;20052;-40
2023/05/28 02:00:04;;;;;;;8.40;4.45;;;14.50;99.90;;;;;;5080841;28;20082;-41
2023/05/28 02:02:30;;;;;;;8.90;4.63;;;14.50;99.90;;;;;;5080531;28;20028;-41
2023/05/28 02:04:58;;;;;;;10.60;4.72;;;14.50;99.90;;;;;;5080588;28;20024;-42
2023/05/28 02:07:24;;;;;;;10.32;4.35;;;14.50;99.90;;;;;;5080145;28;20039;-43
2023/05/28 02:09:49;;;;;;;8.35;4.20;;;14.50;99.90;;;;;;5081766;28;20024;-40
2023/05/28 02:12:15;;;;;;;8.70;3.67;;;14.50;99.90;;;;;;5081588;28;20024;-41
2023/05/28 02:14:42;;;;;;;8.10;4.40;;;14.50;99.90;;;;;;5080367;28;20028;-41
2023/05/28 02:17:09;;;;;;;8.32;4.60;;;14.50;99.90;;;;;;5081922;28;20107;-43
2023/05/28 02:19:35;;;;;;;8.30;4.88;;;14.60;99.90;;;;;;5079816;28;20135;-41
2023/05/28 02:22:00;;;;;;;13.60;4.72;;;14.60;99.90;;;;;;5081313;28;20439;-41
2023/05/28 02:24:26;;;;;;;10.45;4.40;;;14.60;99.90;;;;;;5080469;28;20032;-42
2023/05/28 02:26:51;;;;;;;8.25;4.60;;;14.60;99.90;;;;;;5080377;28;20101;-42
2023/05/28 02:29:17;;;;;;;7.65;4.22;;;14.60;99.90;;;;;;5080784;28;20396;-42
2023/05/28 02:31:42;;;;;;;7.97;4.50;;;14.60;99.90;;;;;;5080944;28;20507;-39
2023/05/28 02:34:08;;;;;;;9.50;4.38;;;14.50;99.90;;;;;;5079637;28;20040;-41
2023/05/28 02:36:35;;;;;;;9.02;4.15;;;14.50;99.90;;;;;;5080078;28;20033;-41
2023/05/28 02:39:01;;;;;;;12.07;5.05;;;14.50;99.90;;;;;;5080657;28;20478;-42
2023/05/28 02:41:27;;;;;;;10.80;5.53;;;14.50;99.90;;;;;;5080380;28;20031;-41
2023/05/28 02:43:53;;;;;;;9.45;4.60;;;14.40;99.90;;;;;;5081118;28;20035;-42
2023/05/28 02:46:19;;;;;;;12.85;6.18;;;14.40;99.90;;;;;;5081207;28;20012;-42
2023/05/28 02:48:45;;;;;;;12.30;5.47;;;14.30;99.90;;;;;;5084050;28;20543;-42
2023/05/28 02:51:11;;;;;;;10.63;4.70;;;14.20;99.90;;;;;;5084801;28;20028;-41
2023/05/28 02:53:39;;;;;;;9.13;4.90;;;14.20;99.90;;;;;;5084845;28;20405;-40
2023/05/28 02:56:07;;;;;;;9.40;4.88;;;14.10;99.90;;;;;;5084232;28;20024;-43
2023/05/28 02:58:33;;;;;;;9.48;4.70;;;14.10;99.90;;;;;;5084514;28;20414;-42
2023/05/28 03:00:58;;;;;;;9.90;4.53;;;14.10;99.90;;;;;;5083458;28;20460;-43
2023/05/28 03:03:24;;;;;;;10.63;4.97;;;14.10;99.90;;;;;;5082967;28;20627;-41
2023/05/28 03:05:50;;;;;;;8.25;4.53;;;14.10;99.90;;;;;;5083082;28;20531;-41
2023/05/28 03:08:16;;;;;;;11.18;4.78;;;14.00;99.90;;;;;;5084086;28;20032;-41
2023/05/28 03:10:42;;;;;;;7.85;4.30;;;14.00;99.90;;;;;;5083222;28;20016;-41
2023/05/28 03:13:08;;;;;;;9.68;4.40;;;14.00;99.90;;;;;;5083890;28;20028;-43
2023/05/28 03:15:33;;;;;;;7.10;4.28;;;14.00;99.90;;;;;;5082144;28;20020;-39
2023/05/28 03:17:59;;;;;;;12.13;5.28;;;14.00;99.90;;;;;;5084233;28;20046;-40
2023/05/28 03:20:25;;;;;;;11.98;4.63;;;14.00;99.90;;;;;;5083851;28;20073;-40
2023/05/28 03:22:58;;;;;;;10.60;5.30;;;14.00;99.90;;;;;;5083516;28;20020;-41
2023/05/28 03:25:24;;;;;;;;;;;14.00;99.90;;;;;;5084151;28;20032;-42
2023/05/28 03:27:56;;;;;;;8.32;4.95;;;14.00;99.90;;;;;;5083246;28;19908;-41
2023/05/28 03:30:22;;;;;;;9.68;4.22;;;14.00;99.90;;;;;;5083700;28;20035;-42
2023/05/28 03:32:50;;;;;;;10.20;5.22;;;14.00;99.90;;;;;;5083714;28;20035;-44
2023/05/28 03:35:16;;;;;;;9.90;5.07;;;14.00;99.90;;;;;;5084142;28;20031;-42
2023/05/28 03:37:42;;;;;;;8.85;4.80;;;14.00;99.90;;;;;;5082779;28;20031;-41
2023/05/28 03:40:08;;;;;;;9.48;5.10;;;14.00;99.90;;;;;;5083721;28;20027;-42
2023/05/28 03:42:34;;;;;;;8.93;4.72;;;14.00;99.90;;;;;;5082678;28;20028;-40
2023/05/28 03:45:00;;;;;;;6.85;3.88;;;14.00;99.90;;;;;;5082843;28;20028;-40
2023/05/28 03:47:27;;;;;;;10.80;4.90;;;14.00;99.90;;;;;;5082600;28;20077;-41
2023/05/28 03:49:52;;;;;;;11.07;4.85;;;14.00;99.90;;;;;;5083694;28;20027;-41
2023/05/28 03:52:18;;;;;;;6.65;4.72;;;14.00;99.90;;;;;;5082940;28;20024;-41
2023/05/28 03:54:44;;;;;;;13.50;5.25;;;14.00;99.90;;;;;;5083278;28;20487;-40
2023/05/28 03:57:10;;;;;;;9.23;4.85;;;14.00;99.90;;;;;;5083022;28;20349;-42
2023/05/28 03:59:37;;;;;;;8.70;5.03;;;14.00;99.90;;;;;;5081715;28;20036;-41
2023/05/28 04:02:02;;;;;;;10.52;4.75;;;14.10;99.90;;;;;;5082918;28;20020;-40
2023/05/28 04:04:30;;;;;;;11.32;5.60;;;14.10;99.90;;;;;;5082428;28;20067;-42
2023/05/28 04:06:56;;;;;;;10.07;5.05;;;14.20;99.90;;;;;;5082673;28;20032;-42
2023/05/28 04:09:26;;;;;;;11.63;4.97;;;14.30;99.90;;;;;;5081859;28;20024;-41
2023/05/28 04:11:52;;;;;;;11.98;5.10;;;14.30;99.90;;;;;;5081469;28;20746;-42
2023/05/28 04:14:21;;;;;;;9.45;4.80;;;14.30;99.90;;;;;;5082113;28;20093;-43
2023/05/28 04:16:47;;;;;;;9.55;5.10;;;14.40;99.90;;;;;;5080740;28;20032;-42
2023/05/28 04:19:16;;;;;;;9.20;4.35;;;14.40;99.90;;;;;;5081051;28;20024;-42
2023/05/28 04:21:44;;;;;;;11.38;4.97;;;14.40;99.90;;;;;;5082138;28;20523;-41
2023/05/28 04:24:10;;;;;;;7.47;4.53;;;14.40;99.90;;;;;;5081753;28;20016;-41
2023/05/28 04:26:38;;;;;;;9.45;4.40;;;14.40;99.90;;;;;;5081394;28;20228;-42
2023/05/28 04:29:04;;;;;;;7.03;3.92;;;14.40;99.90;;;;;;5082389;28;20041;-42
2023/05/28 04:31:29;;;;;;;8.98;4.88;;;14.40;99.90;;;;;;5082203;28;20078;-41
2023/05/28 04:33:55;;;;;;;9.13;4.97;;;14.40;99.90;;;;;;5082146;28;20830;-43
2023/05/28 04:36:21;;;;;;;8.48;4.28;;;14.40;99.90;;;;;;5083431;28;20070;-43
2023/05/28 04:38:46;;;;;;;8.43;4.90;;;14.40;99.90;;;;;;5082106;28;20024;-41
2023/05/28 04:41:15;;;;;;;11.30;4.85;;;14.40;99.90;;;;;;5082508;28;20118;-42
2023/05/28 04:43:44;;;;;;;10.43;4.68;;;14.40;99.90;;;;;;5080569;28;20032;-41
2023/05/28 04:46:11;;;;;;;10.48;4.78;;;14.50;99.90;;;;;;5082739;28;20024;-39
2023/05/28 04:48:37;;;;;;;10.10;5.03;;;14.50;99.90;;;;;;5081158;28;20024;-41
2023/05/28 04:51:03;;;;;;;8.13;4.38;;;14.50;99.90;;;;;;5083047;28;20031;-41
2023/05/28 04:53:33;;;;;;;11.63;5.55;;;14.60;99.90;;;;;;5082074;28;20515;-43
2023/05/28 04:55:59;;;;;;;11.60;5.45;;;14.60;99.90;;;;;;5081766;28;20016;-41
2023/05/28 04:58:25;;;;;;;9.70;5.22;;;14.60;99.90;;;;;;5081357;28;20024;-41
2023/05/28 05:00:52;;;;;;;12.20;5.53;;;14.60;99.90;;;;;;5081903;28;20617;-43
2023/05/28 05:03:18;;;;;;;9.02;5.10;;;14.60;99.90;;;;;;5081759;28;20031;-41
2023/05/28 05:05:43;;;;;;;9.23;5.35;;;14.60;99.90;;;;;;5081559;28;20040;-42
2023/05/28 05:08:13;;;;;;;11.38;5.47;;;14.60;99.90;;;;;;5081636;28;20057;-42
2023/05/28 05:10:38;;;;;;;10.27;5.05;;;14.60;99.90;;;;;;5081579;28;20570;-41
2023/05/28 05:13:04;;;;;;;11.63;5.60;;;14.60;99.90;;;;;;5081968;28;20062;-41
2023/05/28 05:15:30;;;;;;;7.75;4.90;;;14.70;99.90;;;;;;5080448;28;20900;-42
2023/05/28 05:17:56;;;;;;;9.57;5.28;;;14.80;99.90;;;;;;5081858;28;20031;-42
2023/05/28 05:20:21;;;;;;;10.25;5.13;;;14.80;99.90;;;;;;5081304;28;20690;-41
2023/05/28 05:22:47;;;;;;;8.02;4.80;;;14.90;99.90;;;;;;5081206;28;20070;-42
2023/05/28 05:25:12;;;;;;;9.88;5.40;;;14.90;99.90;;;;;;5080675;28;20043;-42
2023/05/28 05:27:38;;;;;;;10.40;5.40;;;15.00;99.90;;;;;;5080210;28;20028;-42
2023/05/28 05:30:05;;;;;;;7.90;4.72;;;15.00;99.90;;;;;;5080123;28;20035;-41
2023/05/28 05:32:31;;;;;;;9.52;5.47;;;15.00;99.90;;;;;;5080455;28;20055;-42
2023/05/28 05:34:59;;;;;;;6.82;5.00;;;15.00;99.90;;;;;;5081320;28;20099;-42
2023/05/28 05:37:24;;;;;;;10.75;5.45;;;15.00;99.90;;;;;;5080596;28;20495;-43
2023/05/28 05:39:50;;;;;;;14.10;5.70;;;15.00;99.90;;;;;;5081590;28;20043;-42
2023/05/28 05:42:15;;;;;;;10.40;5.07;;;15.10;99.90;;;;;;5081396;28;20028;-42
2023/05/28 05:44:41;;;;;;;12.73;5.60;;;15.00;99.90;;;;;;5080843;28;20036;-42
2023/05/28 05:47:06;;;;;;;8.50;5.45;;;15.00;99.90;;;;;;5080723;28;20115;-41
2023/05/28 05:49:35;;;;;;;11.02;6.03;;;15.00;99.90;;;;;;5081056;28;20050;-40
2023/05/28 05:52:03;;;;;;;11.38;5.28;;;15.10;99.90;;;;;;5080381;28;20089;-42
2023/05/28 05:54:29;;;;;;;9.70;5.30;;;15.10;99.90;;;;;;5081032;28;20799;-40
2023/05/28 05:56:54;;;;;;;10.32;5.25;;;15.10;99.90;;;;;;5080839;28;20056;-42
2023/05/28 05:59:20;;;;;;;11.25;4.95;;;15.10;99.90;;;;;;5080919;28;20028;-41
2023/05/28 06:01:45;;;;;;;8.15;4.35;;;15.10;99.90;;;;;;5081495;28;20016;-43
2023/05/28 06:04:11;;;;;;;10.52;5.47;;;15.10;99.90;;;;;;5080661;28;20736;-42
2023/05/28 06:06:38;;;;;;;10.15;4.53;;;15.10;99.90;;;;;;5080125;28;20513;-42
2023/05/28 06:09:04;;;;;;;8.80;4.88;;;15.10;99.90;;;;;;5081787;28;20070;-42
2023/05/28 06:11:30;;;;;;;9.43;4.70;;;15.10;99.90;;;;;;5080179;28;20028;-44
2023/05/28 06:13:56;;;;;;;8.60;4.53;;;15.10;99.90;;;;;;5081336;28;20119;-42
2023/05/28 06:16:22;;;;;;;10.45;5.25;;;15.10;99.90;;;;;;5081555;28;20035;-43
2023/05/28 06:18:47;;;;;;;10.48;5.65;;;15.10;99.90;;;;;;5080955;28;20028;-42
2023/05/28 06:21:13;;;;;;;11.02;5.90;;;15.10;99.90;;;;;;5082368;28;20024;-41
2023/05/28 06:23:39;;;;;;;8.63;4.65;;;15.00;99.90;;;;;;5085184;28;20024;-43
2023/05/28 06:26:05;;;;;;;11.45;4.93;;;15.00;99.90;;;;;;5084511;28;20491;-41
2023/05/28 06:28:31;;;;;;;11.73;4.97;;;15.00;99.90;;;;;;5083703;28;20749;-44
2023/05/28 06:30:56;;;;;;;7.15;4.65;;;15.00;99.90;;;;;;5085263;28;20024;-43
2023/05/28 06:33:22;;;;;;;10.18;5.07;;;15.00;99.90;;;;;;5082746;28;20635;-42
2023/05/28 06:35:48;;;;;;;8.57;5.28;;;15.00;99.90;;;;;;5089428;28;20463;-44
2023/05/28 06:38:13;;;;;;;7.45;4.70;;;15.00;99.90;;;;;;5089718;28;20116;-41
2023/05/28 06:40:39;;;;;;;7.97;4.53;;;15.00;99.90;;;;;;5083015;28;20046;-41
2023/05/28 06:43:05;;;;;;;8.52;5.03;;;15.00;99.90;;;;;;5083779;28;20077;-42
2023/05/28 06:45:32;;;;;;;11.32;4.78;;;15.10;99.90;;;;;;5084466;28;20050;-42
2023/05/28 06:47:58;;;;;;;9.05;4.72;;;15.10;99.90;;;;;;5083853;28;20028;-42
2023/05/28 06:50:24;;;;;;;7.93;4.28;;;15.10;99.90;;;;;;5084211;28;20034;-41
2023/05/28 06:52:50;;;;;;;8.02;4.47;;;15.10;99.90;;;;;;5084916;28;20024;-41
2023/05/28 06:55:15;;;;;;;8.80;4.30;;;15.10;99.90;;;;;;5084059;28;20123;-42
2023/05/28 06:57:44;;;;;;;8.90;5.10;;;15.20;99.90;;;;;;5084194;28;20076;-42
2023/05/28 07:00:14;;;;;;;9.02;4.65;;;15.20;99.90;;;;;;5084539;28;20024;-41
2023/05/28 07:02:40;;;;;;;7.72;4.28;;;15.30;99.90;;;;;;5083556;28;20028;-42
2023/05/28 07:05:12;;;;;;;7.18;4.50;;;15.30;99.90;;;;;;5083930;28;20463;-41
2023/05/28 07:07:38;;;;;;;9.00;4.20;;;15.40;99.90;;;;;;5083423;28;20024;-40
2023/05/28 07:10:04;;;;;;;11.15;4.60;;;15.50;99.90;;;;;;5084122;28;20024;-41
2023/05/28 07:12:29;;;;;;;12.77;4.47;;;15.60;99.90;;;;;;5083645;28;20031;-41
2023/05/28 07:14:55;;;;;;;9.43;4.68;;;15.70;99.90;;;;;;5083364;28;20016;-44
2023/05/28 07:17:21;;;;;;;10.30;4.50;;;15.80;99.90;;;;;;5084111;28;20754;-38
2023/05/28 07:19:47;;;;;;;8.55;4.10;;;15.90;99.90;;;;;;5083983;28;20083;-42
2023/05/28 07:22:13;;;;;;;7.03;3.47;;;16.00;99.90;;;;;;5084043;28;20021;-42
2023/05/28 07:24:38;;;;;;;7.97;3.90;;;16.10;99.90;;;;;;5084794;28;20012;-39
2023/05/28 07:27:04;;;;;;;7.35;3.60;;;16.20;99.90;;;;;;5084831;28;20768;-40
2023/05/28 07:29:30;;;;;;;5.97;3.92;;;16.30;99.90;;;;;;5083252;28;20051;-42
2023/05/28 07:31:55;;;;;;;8.68;3.72;;;16.40;99.90;;;;;;5084599;28;20134;-40
2023/05/28 07:34:24;;;;;;;8.55;3.90;;;16.50;99.90;;;;;;5083571;28;20035;-42
2023/05/28 07:36:49;;;;;;;6.80;3.83;;;16.70;99.90;;;;;;5082955;28;20549;-42
2023/05/28 07:39:15;;;;;;;6.75;3.50;;;16.80;99.90;;;;;;5083496;28;20022;-42
2023/05/28 07:41:40;;;;;;;6.05;3.38;;;16.90;99.90;;;;;;5082831;28;20023;-42
2023/05/28 07:44:06;;;;;;;5.78;2.90;;;17.00;99.90;;;;;;5082800;28;20027;-44
2023/05/28 07:46:32;;;;;;;6.97;3.47;;;17.10;99.90;;;;;;5082739;28;20028;-43
2023/05/28 07:49:00;;;;;;;6.00;4.07;;;17.20;99.90;;;;;;5083594;28;20375;-42
2023/05/28 07:51:29;;;;;;;7.82;3.72;;;17.40;99.90;;;;;;5081678;28;20039;-42
2023/05/28 07:53:57;;;;;;;5.90;3.40;;;17.40;99.90;;;;;;5083513;28;20048;-42
2023/05/28 07:56:23;;;;;;;6.95;3.33;;;17.60;99.90;;;;;;5081915;28;20124;-42
2023/05/28 07:58:49;;;;;;;7.03;3.42;;;17.60;99.90;;;;;;5082778;28;20032;-43
2023/05/28 08:01:14;;;;;;;6.18;3.60;;;17.70;99.90;;;;;;5083432;28;20060;-44
2023/05/28 08:03:43;;;;;;;5.90;3.15;;;17.80;99.90;;;;;;5082378;28;20051;-41
2023/05/28 08:06:11;;;;;;;5.75;3.13;;;17.90;99.90;;;;;;5082435;28;20060;-42
2023/05/28 08:08:37;;;;;;;5.35;2.85;;;18.00;99.90;;;;;;5082454;28;20093;-42
2023/05/28 08:11:02;;;;;;;6.53;3.10;;;18.10;99.90;;;;;;5082543;28;20012;-41
2023/05/28 08:13:28;;;;;;;5.38;2.60;;;18.10;99.90;;;;;;5082325;28;20043;-41
2023/05/28 08:15:59;;;;;;;4.13;2.60;;;18.20;99.90;;;;;;5082668;28;20024;-42
2023/05/28 08:18:24;;;;;;;6.57;3.10;;;18.20;99.90;;;;;;5082021;28;20038;-40
2023/05/28 08:20:50;;;;;;;5.22;2.72;;;18.30;99.90;;;;;;5083007;28;20016;-42
2023/05/28 08:23:16;;;;;;;5.60;2.65;;;18.40;99.90;;;;;;5082745;28;20046;-42
2023/05/28 08:25:42;;;;;;;5.65;2.90;;;18.40;99.90;;;;;;5082188;28;20714;-41
2023/05/28 08:28:09;;;;;;;5.72;3.25;;;18.50;99.90;;;;;;5082849;28;20027;-43
2023/05/28 08:30:35;;;;;;;4.97;2.90;;;18.60;99.90;;;;;;5082172;28;20032;-43
2023/05/28 08:33:01;;;;;;;5.90;3.20;;;18.70;99.90;;;;;;5082594;28;20036;-42
2023/05/28 08:35:26;;;;;;;5.97;2.90;;;18.80;99.90;;;;;;5082738;28;20158;-42
2023/05/28 08:37:52;;;;;;;6.22;3.10;;;18.90;99.90;;;;;;5082910;28;20080;-43
2023/05/28 08:40:17;;;;;;;6.47;3.30;;;18.90;99.90;;;;;;5082251;28;20149;-43
2023/05/28 08:42:43;;;;;;;5.93;3.22;;;19.00;99.90;;;;;;5082587;28;20028;-42
2023/05/28 08:45:10;;;;;;;7.05;3.45;;;19.00;99.90;;;;;;5081906;28;20051;-40
2023/05/28 08:47:36;;;;;;;7.88;3.25;;;19.10;99.90;;;;;;5081697;28;20503;-45
2023/05/28 08:50:06;;;;;;;4.97;2.63;;;19.10;99.90;;;;;;5081153;28;20024;-43
2023/05/28 08:52:33;;;;;;;5.72;3.25;;;19.20;99.90;;;;;;5080083;28;20020;-45
2023/05/28 08:55:03;;;;;;;4.22;2.72;;;19.30;99.90;;;;;;5080782;28;20135;-41
2023/05/28 08:57:32;;;;;;;6.10;3.00;;;19.30;99.80;;;;;;5080472;28;20040;-43
2023/05/28 09:00:07;;;;;;;4.50;2.70;;;19.30;99.60;;;;;;5081892;28;20024;-41
2023/05/28 09:02:33;;;;;;;6.40;3.17;;;19.40;99.70;;;;;;5081682;28;20032;-42
2023/05/28 09:04:58;;;;;;;6.97;3.10;;;19.50;99.60;;;;;;5082419;28;20043;-43
2023/05/28 09:07:26;;;;;;;5.63;2.83;;;19.60;99.30;;;;;;5081423;28;20383;-43
2023/05/28 09:09:56;;;;;;;5.95;3.15;;;19.60;98.70;;;;;;5070983;28;20503;-42
2023/05/28 09:12:22;;;;;;;7.95;3.70;;;19.70;98.30;;;;;;5081549;28;20055;-42
2023/05/28 09:14:52;;;;;;;7.00;3.47;;;19.80;98.00;;;;;;5081551;28;20106;-42
2023/05/28 09:17:31;;;;;;;6.43;2.90;;;19.80;97.30;;;;;;5081562;28;20024;-42
2023/05/28 09:19:59;;;;;;;5.88;3.25;;;19.90;97.30;;;;;;5080559;28;20108;-42
2023/05/28 09:22:28;;;;;;;5.45;2.75;;;19.90;97.10;;;;;;5081001;28;20069;-42
2023/05/28 09:24:54;;;;;;;6.30;3.03;;;19.90;97.20;;;;;;5081701;28;20024;-43
2023/05/28 09:27:21;;;;;;;5.07;2.85;;;20.00;97.00;;;;;;5081428;28;20035;-43
2023/05/28 09:29:47;;;;;;;6.15;3.17;;;20.00;97.00;;;;;;5080340;28;20031;-43
2023/05/28 09:32:19;;;;;;;6.95;2.90;;;20.10;96.80;;;;;;5081199;28;20097;-42
2023/05/28 09:34:45;;;;;;;6.50;2.95;;;20.10;96.60;;;;;;5081234;28;20487;-43
2023/05/28 09:37:11;;;;;;;6.90;2.95;;;20.20;96.50;;;;;;5081447;28;20490;-41
2023/05/28 09:39:37;;;;;;;6.07;2.92;;;20.20;96.30;;;;;;5081363;28;20023;-43
2023/05/28 09:42:09;;;;;;;6.18;3.20;;;20.20;95.60;;;;;;5082473;28;20087;-43
2023/05/28 09:44:39;;;;;;;6.43;3.10;;;20.30;95.00;;;;;;5080410;28;20032;-42
2023/05/28 09:47:18;;;;;;;6.70;2.95;;;20.30;94.80;;;;;;5081863;28;20176;-42
2023/05/28 09:49:45;;;;;;;6.25;3.28;;;20.40;94.90;;;;;;5080989;28;20036;-43
2023/05/28 09:52:20;;;;;;;7.18;2.95;;;20.40;94.70;;;;;;5081821;28;20054;-43
2023/05/28 09:54:55;;;;;;;6.97;3.60;;;20.40;94.70;;;;;;5081211;28;20028;-43
2023/05/28 09:57:26;;;;;;;7.60;3.33;;;20.50;94.50;;;;;;5084166;28;20055;-44
2023/05/28 09:59:56;;;;;;;7.47;3.40;;;20.50;94.60;;;;;;5084695;28;20024;-43
2023/05/28 10:02:40;;;;;;;8.98;3.80;;;20.60;94.70;;;;;;5084398;28;20024;-43
2023/05/28 10:05:08;;;;;;;6.97;3.50;;;20.60;94.60;;;;;;5084494;28;20017;-43
2023/05/28 10:07:34;;;;;;;7.43;3.40;;;20.60;94.70;;;;;;5084981;28;20032;-43
2023/05/28 10:10:01;;;;;;;8.13;3.78;;;20.60;94.70;;;;;;5085547;28;20067;-43
2023/05/28 10:12:30;;;;;;;6.70;3.55;;;20.60;94.60;;;;;;5083759;28;20036;-41
2023/05/28 10:14:56;;;;;;;5.22;3.15;;;20.60;94.60;;;;;;5084980;28;20027;-42
2023/05/28 10:17:22;;;;;;;6.05;2.97;;;20.70;94.50;;;;;;5084712;28;20021;-42
2023/05/28 10:19:48;;;;;;;6.45;3.38;;;20.70;94.30;;;;;;5084523;28;20032;-44
2023/05/28 10:22:17;;;;;;;11.73;3.92;;;20.80;94.00;;;;;;5085139;28;20470;-44
2023/05/28 10:24:44;;;;;;;6.13;3.40;;;20.80;94.00;;;;;;5084448;28;20805;-44
2023/05/28 10:27:14;;;;;;;6.90;3.22;;;20.80;94.00;;;;;;5084753;28;20545;-43
2023/05/28 10:29:41;;;;;;;6.85;3.75;;;20.90;94.00;;;;;;5084543;28;20020;-42
2023/05/28 10:32:07;;;;;;;7.70;3.80;;;20.90;94.00;;;;;;5084967;28;20016;-43
2023/05/28 10:34:35;;;;;;;6.07;3.30;;;20.90;93.90;;;;;;5085072;28;20093;-42
2023/05/28 10:37:04;;;;;;;7.55;3.65;;;21.00;93.90;;;;;;5085992;28;20038;-43
2023/05/28 10:39:40;;;;;;;8.30;3.38;;;21.10;94.00;;;;;;5084715;28;20031;-43
2023/05/28 10:42:13;;;;;;;10.13;3.65;;;21.10;93.90;;;;;;5084721;28;20032;-42
2023/05/28 10:45:03;;;;;;;6.50;3.20;;;21.20;93.60;;;;;;5084998;28;20378;-43
2023/05/28 10:47:40;;;;;;;7.30;3.22;;;21.10;93.40;;;;;;5083943;28;20024;-43
2023/05/28 10:50:08;;;;;;;7.03;3.38;;;21.20;93.30;;;;;;5084858;28;20055;-43
2023/05/28 10:52:34;;;;;;;7.57;3.40;;;21.20;93.20;;;;;;5083000;28;20474;-44
2023/05/28 10:55:03;;;;;;;6.65;3.47;;;21.20;93.10;;;;;;5084328;28;20482;-43
2023/05/28 10:57:51;;;;;;;6.07;3.33;;;21.30;93.10;;;;;;5083733;28;20861;-43
2023/05/28 11:00:24;;;;;;;7.47;3.15;;;21.30;92.80;;;;;;5083864;28;20023;-42
2023/05/28 11:02:54;;;;;;;5.35;2.67;;;21.30;92.60;;;;;;5084349;28;20073;-42
2023/05/28 11:05:25;;;;;;;7.65;3.50;;;21.30;92.70;;;;;;5084382;28;20046;-42
2023/05/28 11:07:52;;;;;;;7.47;3.37;;;21.30;92.70;;;;;;5082087;28;20024;-32
2023/05/28 11:10:21;;;;;;;9.25;3.60;;;21.30;92.40;;;;;;5082779;28;20278;-43
2023/05/28 11:12:46;;;;;;;5.32;2.92;;;21.30;92.40;;;;;;5082893;28;20102;-44
2023/05/28 11:15:13;;;;;;;3.75;3.00;;;21.40;92.40;;;;;;5082791;28;20102;-42
2023/05/28 11:17:43;;;;;;;6.03;3.47;;;21.40;92.40;;;;;;5083297;28;20806;-43
2023/05/28 11:20:24;;;;;;;8.25;3.58;;;21.40;92.20;;;;;;5083863;28;20040;-43
2023/05/28 11:22:50;;;;;;;7.93;3.35;;;21.50;92.00;;;;;;5082878;28;20113;-42
2023/05/28 11:25:16;;;;;;;5.22;3.20;;;21.40;91.40;;;;;;5084751;28;20024;-42
2023/05/28 11:27:44;;;;;;;7.82;3.40;;;21.40;91.30;;;;;;5083527;28;20270;-42
2023/05/28 11:30:12;;;;;;;6.47;3.25;;;21.50;90.70;;;;;;5083908;28;20054;-42
2023/05/28 11:32:38;;;;;;;7.68;3.30;;;21.50;90.80;;;;;;5083342;28;20681;-43
2023/05/28 11:35:04;;;;;;;5.47;2.92;;;21.60;90.70;;;;;;5082946;28;20081;-43
2023/05/28 11:37:35;;;;;;;7.50;3.40;;;21.60;90.70;;;;;;5083017;28;20887;-43
2023/05/28 11:40:05;;;;;;;5.97;3.15;;;21.70;90.60;;;;;;5084500;28;20035;-44
2023/05/28 11:42:31;;;;;;;7.15;3.15;;;21.70;90.40;;;;;;5082676;28;20154;-43
2023/05/28 11:44:59;;;;;;;4.80;2.72;;;21.70;90.50;;;;;;5084287;28;20102;-43
2023/05/28 11:47:26;;;;;;;7.93;2.97;;;21.80;90.80;;;;;;5083955;28;20111;-43
2023/05/28 11:49:52;;;;;;;5.18;2.63;;;21.90;90.80;;;;;;5082791;28;20027;-43
2023/05/28 11:52:20;;;;;;;5.53;2.90;;;22.00;90.80;;;;;;5083750;28;20028;-43
2023/05/28 11:54:51;;;;;;;6.55;2.88;;;22.00;90.40;;;;;;5083898;28;20115;-42
2023/05/28 11:57:25;;;;;;;4.45;3.03;;;22.10;90.10;;;;;;5082885;28;20079;-42
2023/05/28 11:59:58;;;;;;;5.72;3.05;;;22.10;89.40;;;;;;5083259;28;20028;-43
2023/05/28 12:02:24;;;;;;;7.30;2.75;;;22.20;89.40;;;;;;5083649;28;20040;-42
2023/05/28 12:05:08;;;;;;;5.57;2.65;;;22.30;88.40;;;;;;5082621;28;20506;-43
2023/05/28 12:07:35;;;;;;;5.35;3.03;;;22.30;88.30;;;;;;5082810;28;20043;-43
2023/05/28 12:10:08;;;;;;;7.47;3.75;;;22.30;88.20;;;;;;5082261;28;20055;-42
2023/05/28 12:12:39;;;;;;;5.22;3.13;;;22.30;88.10;;;;;;5082301;28;20908;-41
2023/05/28 12:15:06;;;;;;;6.13;3.30;;;22.40;88.20;;;;;;5081924;28;20870;-42
2023/05/28 12:17:36;;;;;;;6.45;3.20;;;22.40;88.10;;;;;;5080891;28;20115;-43
2023/05/28 12:20:23;;;;;;;4.75;2.90;;;22.50;88.20;;;;;;5080984;28;20028;-42
2023/05/28 12:23:09;;;;;;;6.78;2.95;;;22.50;87.70;;;;;;5044913;28;20041;-43
2023/05/28 12:25:44;;;;;;;6.38;3.33;;;22.60;87.10;;;;;;5079887;28;20139;-42
2023/05/28 12:28:10;;;;;;;6.85;3.45;;;22.70;85.80;;;;;;5082051;28;20044;-42
2023/05/28 12:30:38;;;;;;;5.20;3.00;;;22.80;84.40;;;;;;5082172;28;20024;-42
2023/05/28 12:33:03;;;;;;;5.95;2.85;;;22.90;84.50;;;;;;5082939;28;20047;-43
2023/05/28 12:35:29;;;;;;;7.03;3.33;;;22.90;84.20;;;;;;5082235;28;20032;-43
2023/05/28 12:37:55;;;;;;;5.35;2.90;;;23.00;83.70;;;;;;5082122;28;20032;-42
2023/05/28 12:40:20;;;;;;;5.45;3.13;;;23.00;83.40;;;;;;5081951;28;20074;-43
2023/05/28 12:42:46;;;;;;;4.63;3.00;;;23.00;82.50;;;;;;5082329;28;20028;-44
2023/05/28 12:45:11;;;;;;;5.93;2.90;;;23.00;82.50;;;;;;5082728;28;20088;-43
2023/05/28 12:47:37;;;;;;;6.05;3.20;;;23.10;82.90;;;;;;5082892;28;20569;-43